Time;durP1;ratioP1;P1;durP2;ratioP2;P2;SDS_P1;SDS_P2;PMS_P1;PMS_P2;Temp;Humidity;BMP_temperature;BMP_pressure;BME280_temperature;BME280_humidity;BME280_pressure;Samples;Min_cycle;Max_cycle;Signal;HPM_P1;HPM_P2
2022/04/17 00:01:10;;;;;;;6.70;3.60;;;;;;;7.39;59.54;102007.81;8275862;28;20049;-65
2022/04/17 00:05:11;;;;;;;6.85;3.42;;;;;;;7.29;59.73;102004.75;8258275;28;20446;-64
2022/04/17 00:09:11;;;;;;;11.25;3.58;;;;;;;7.19;60.15;102011.59;8263978;28;20042;-64
2022/04/17 00:13:12;;;;;;;5.90;4.13;;;;;;;7.22;60.06;102011.41;8286480;28;20056;-64
2022/04/17 00:17:13;;;;;;;6.70;4.22;;;;;;;7.21;59.94;102015.06;8262513;28;20499;-64
2022/04/17 00:21:15;;;;;;;4.45;2.88;;;;;;;7.22;59.94;102016.81;8264951;28;20050;-64
2022/04/17 00:25:16;;;;;;;6.90;3.13;;;;;;;7.17;60.59;102018.00;8288200;28;20570;-65
2022/04/17 00:29:17;;;;;;;7.28;3.17;;;;;;;7.16;60.34;102009.06;8294310;28;20606;-65
2022/04/17 00:33:17;;;;;;;5.97;3.33;;;;;;;7.13;60.21;102000.28;8294464;28;20068;-65
2022/04/17 00:37:18;;;;;;;4.05;2.63;;;;;;;7.04;60.68;101998.06;8292288;28;20092;-65
2022/04/17 00:41:18;;;;;;;3.90;2.28;;;;;;;7.14;59.49;102000.19;8294445;28;20041;-65
2022/04/17 00:45:19;;;;;;;7.35;3.40;;;;;;;7.19;58.92;101997.25;8292801;28;20307;-65
2022/04/17 00:49:19;;;;;;;4.85;3.28;;;;;;;7.08;60.04;102011.28;8291470;28;20258;-65
2022/04/17 00:53:22;;;;;;;5.63;3.25;;;;;;;6.43;63.98;101997.75;8266994;28;20120;-64
2022/04/17 00:57:22;;;;;;;8.20;3.08;;;;;;;6.37;63.67;102003.41;8291277;28;20046;-64
2022/04/17 01:01:24;;;;;;;3.55;2.72;;;;;;;6.63;62.33;102005.66;8293876;28;20100;-64
2022/04/17 01:05:25;;;;;;;3.88;2.90;;;;;;;6.63;61.89;102000.28;8293441;28;20064;-64
2022/04/17 01:09:26;;;;;;;5.65;3.13;;;;;;;6.48;62.80;101990.31;8291992;28;20058;-64
2022/04/17 01:13:27;;;;;;;4.07;3.03;;;;;;;6.40;63.18;101981.78;8295240;28;20406;-64
2022/04/17 01:17:27;;;;;;;4.35;2.60;;;;;;;6.32;63.29;101989.38;8277513;28;20038;-64
2022/04/17 01:21:29;;;;;;;7.30;3.42;;;;;;;6.36;63.36;101984.69;8275194;28;20069;-64
2022/04/17 01:27:01;;;;;;;6.55;3.17;;;;;;;6.36;63.17;101985.56;8283542;28;25308;-64
2022/04/17 01:29:51;;;;;;;6.57;3.63;;;;;;;6.45;63.01;101979.75;8292485;28;20034;-64
2022/04/17 01:33:51;;;;;;;6.25;3.20;;;;;;;6.31;63.40;101974.19;8292712;28;20548;-64
2022/04/17 01:37:52;;;;;;;7.10;4.03;;;;;;;6.20;64.19;101979.25;8292371;28;20407;-64
2022/04/17 01:41:53;;;;;;;4.68;3.38;;;;;;;6.15;64.70;101975.91;8291505;28;20038;-64
2022/04/17 01:45:55;;;;;;;5.97;3.60;;;;;;;6.00;65.20;101965.94;8292699;28;20034;-64
2022/04/17 01:49:56;;;;;;;9.43;3.30;;;;;;;6.11;65.45;101963.59;8264228;28;20030;-64
2022/04/17 01:53:56;;;;;;;6.85;3.17;;;;;;;6.17;65.03;101960.63;8281299;28;20430;-64
2022/04/17 01:57:57;;;;;;;7.25;2.92;;;;;;;6.15;65.20;101958.94;8264736;28;20088;-64
2022/04/17 02:01:57;;;;;;;4.07;2.80;;;;;;;6.06;66.15;101968.31;8276942;28;20089;-64
2022/04/17 02:06:00;;;;;;;5.28;3.45;;;;;;;5.83;66.68;101963.25;8275067;28;20054;-65
2022/04/17 02:10:02;;;;;;;6.53;3.65;;;;;;;5.73;67.14;101960.09;8260853;28;20399;-64
2022/04/17 02:14:03;;;;;;;4.38;2.97;;;;;;;5.72;67.11;101950.31;8273890;28;20034;-64
2022/04/17 02:18:04;;;;;;;6.55;3.58;;;;;;;5.63;67.70;101955.25;8289710;28;20109;-64
2022/04/17 02:22:05;;;;;;;4.25;3.40;;;;;;;5.37;69.52;101958.31;8265801;28;20038;-64
2022/04/17 02:26:05;;;;;;;6.10;3.70;;;;;;;5.31;69.78;101953.25;8284895;28;20109;-64
2022/04/17 02:30:06;;;;;;;6.50;3.58;;;;;;;5.03;71.02;101942.06;8289509;28;20118;-65
2022/04/17 02:34:08;;;;;;;4.45;3.33;;;;;;;4.98;71.87;101938.72;8278446;28;20031;-64
2022/04/17 02:38:09;;;;;;;5.00;3.30;;;;;;;4.91;72.14;101931.91;8274184;28;20057;-64
2022/04/17 02:42:09;;;;;;;6.35;3.50;;;;;;;5.06;71.77;101939.25;8259856;28;20387;-64
2022/04/17 02:46:10;;;;;;;5.80;3.38;;;;;;;5.22;71.04;101937.59;8258142;28;20038;-64
2022/04/17 02:50:12;;;;;;;5.10;3.63;;;;;;;5.18;70.93;101936.84;8263444;28;20034;-64
2022/04/17 02:54:12;;;;;;;6.90;3.72;;;;;;;5.25;70.89;101937.44;8287372;28;20037;-64
2022/04/17 02:58:12;;;;;;;4.55;3.58;;;;;;;5.22;71.13;101933.06;8290182;28;20196;-64
2022/04/17 03:06:33;;;;;;;4.80;3.25;;;;;;;5.68;69.46;101918.34;8289062;28;20064;-64
2022/04/17 03:10:35;;;;;;;4.18;3.22;;;;;;;5.70;68.93;101919.13;8275208;28;20042;-64
2022/04/17 03:14:35;;;;;;;5.38;3.47;;;;;;;5.65;69.17;101915.81;8284318;28;20538;-64
2022/04/17 03:18:36;;;;;;;4.68;3.65;;;;;;;5.56;69.85;101914.47;8259156;28;20399;-64
2022/04/17 03:22:41;;;;;;;4.13;3.60;;;;;;;5.37;70.95;101915.41;8259559;28;20039;-64
2022/04/17 03:26:41;;;;;;;7.78;3.80;;;;;;;5.43;70.86;101917.81;8258160;28;20371;-64
2022/04/17 03:30:42;;;;;;;7.75;3.78;;;;;;;5.54;70.83;101920.81;8258152;28;20090;-64
2022/04/17 03:34:42;;;;;;;5.85;3.83;;;;;;;5.56;70.84;101911.78;8258222;28;20038;-64
2022/04/17 03:38:42;;;;;;;4.07;3.63;;;;;;;5.55;71.15;101919.91;8272129;28;20038;-64
2022/04/17 03:42:43;;;;;;;5.43;3.92;;;;;;;5.52;71.48;101915.53;8256969;28;20049;-65
2022/04/17 03:46:44;;;;;;;6.10;3.95;;;;;;;5.52;71.65;101920.03;8258289;28;20062;-64
2022/04/17 03:50:45;;;;;;;5.28;3.70;;;;;;;5.45;72.67;101913.22;8261033;28;20045;-64
2022/04/17 03:54:46;;;;;;;6.50;5.03;;;;;;;5.35;73.39;101903.88;8272493;28;20034;-64
2022/04/17 03:58:46;;;;;;;6.18;4.55;;;;;;;5.38;73.04;101907.28;8289178;28;20049;-64
2022/04/17 04:02:49;;;;;;;7.45;4.57;;;;;;;5.45;72.50;101910.53;8289299;28;20517;-64
2022/04/17 04:06:50;;;;;;;9.35;3.97;;;;;;;5.44;72.51;101909.69;8288103;28;20585;-64
2022/04/17 04:10:50;;;;;;;7.20;4.68;;;;;;;5.46;72.68;101909.59;8289438;28;20120;-64
2022/04/17 04:14:51;;;;;;;6.35;4.45;;;;;;;5.41;72.83;101900.91;8287476;28;20037;-64
2022/04/17 04:18:51;;;;;;;5.50;4.60;;;;;;;5.35;73.16;101896.72;8287897;28;20298;-64
2022/04/17 04:22:54;;;;;;;6.10;4.78;;;;;;;5.28;73.16;101891.72;8258505;28;20043;-64
2022/04/17 04:31:15;;;;;;;6.72;4.40;;;;;;;5.16;73.87;101911.06;8270076;28;20039;-64
2022/04/17 04:35:16;;;;;;;6.53;4.70;;;;;;;5.07;74.53;101917.75;8288047;28;20410;-64
2022/04/17 04:39:16;;;;;;;11.82;5.25;;;;;;;5.11;74.37;101919.31;8280610;28;20715;-64
2022/04/17 04:43:16;;;;;;;9.32;4.68;;;;;;;5.15;74.09;101917.34;8258519;28;20045;-65
2022/04/17 04:47:17;;;;;;;6.22;4.45;;;;;;;5.24;73.81;101909.75;8255874;28;20042;-65
2022/04/17 04:51:17;;;;;;;6.13;4.95;;;;;;;5.41;73.31;101922.34;8261978;28;20521;-64
2022/04/17 04:55:18;;;;;;;8.30;4.70;;;;;;;5.51;72.81;101919.16;8278949;28;20050;-65
2022/04/17 04:59:20;;;;;;;5.88;4.30;;;;;;;5.57;72.30;101912.63;8283551;28;20046;-65
2022/04/17 05:03:21;;;;;;;5.32;4.50;;;;;;;5.70;72.59;101916.44;8261449;28;20088;-65
2022/04/17 05:07:21;;;;;;;5.60;4.15;;;;;;;5.86;71.46;101910.25;8260811;28;20224;-65
2022/04/17 05:11:21;;;;;;;5.75;4.40;;;;;;;5.91;71.50;101907.34;8262791;28;20030;-65
2022/04/17 05:15:22;;;;;;;5.65;3.85;;;;;;;6.01;71.17;101895.22;8292077;28;20041;-65
2022/04/17 05:19:27;;;;;;;6.10;4.38;;;;;;;6.08;71.41;101900.16;8286478;28;20072;-65
2022/04/17 05:23:29;;;;;;;7.65;3.92;;;;;;;6.17;71.15;101901.53;8267822;28;20569;-65
2022/04/17 05:27:30;;;;;;;7.03;4.38;;;;;;;6.25;71.10;101901.16;8291326;28;20064;-65
2022/04/17 05:31:30;;;;;;;7.10;4.43;;;;;;;6.25;71.50;101902.00;8293060;28;20030;-65
2022/04/17 05:35:30;;;;;;;5.38;4.32;;;;;;;6.29;71.79;101898.22;8279958;28;20046;-65
2022/04/17 05:39:31;;;;;;;6.47;4.18;;;;;;;6.40;71.86;101884.22;8261480;28;20368;-65
2022/04/17 05:43:31;;;;;;;5.13;4.10;;;;;;;6.58;72.17;101894.84;8261378;28;20403;-65
2022/04/17 05:47:32;;;;;;;5.30;3.95;;;;;;;6.75;72.48;101897.53;8261166;28;20038;-65
2022/04/17 05:51:34;;;;;;;7.97;4.30;;;;;;;6.91;72.77;101893.03;8265330;28;20061;-65
2022/04/17 05:55:35;;;;;;;4.38;3.55;;;;;;;7.06;72.32;101894.91;8282970;28;20053;-65
2022/04/17 05:59:36;;;;;;;4.30;3.90;;;;;;;7.20;72.86;101889.59;8291595;28;20068;-65
2022/04/17 06:03:37;;;;;;;5.15;4.07;;;;;;;7.42;71.72;101889.28;8274156;28;20045;-65
2022/04/17 06:07:37;;;;;;;5.75;3.60;;;;;;;7.73;69.95;101890.13;8290456;28;20544;-65
2022/04/17 06:11:38;;;;;;;6.00;3.20;;;;;;;7.98;69.14;101879.63;8291428;28;20042;-65
2022/04/17 06:15:40;;;;;;;3.88;3.38;;;;;;;8.27;68.21;101880.63;8291365;28;20074;-65
2022/04/17 06:19:42;;;;;;;5.45;4.00;;;;;;;8.48;66.88;101881.13;8278948;28;20039;-65
2022/04/17 06:23:43;;;;;;;7.82;3.85;;;;;;;8.62;65.36;101870.34;8271496;28;20571;-66
2022/04/17 06:27:46;;;;;;;15.45;6.05;;;;;;;8.87;65.49;101875.94;8288064;28;20379;-65
2022/04/17 06:31:46;;;;;;;8.05;4.43;;;;;;;9.16;64.64;101874.97;8273018;28;20597;-64
2022/04/17 06:35:46;;;;;;;5.07;4.07;;;;;;;9.42;63.90;101875.00;8259735;28;20034;-63
2022/04/17 06:39:47;;;;;;;6.03;4.20;;;;;;;9.56;62.65;101860.63;8274100;28;20078;-64
2022/04/17 06:43:47;;;;;;;6.25;3.75;;;;;;;9.67;61.98;101869.72;8257656;28;20069;-65
2022/04/17 06:47:48;;;;;;;6.55;3.55;;;;;;;9.85;61.65;101862.22;8277818;28;20073;-64
2022/04/17 06:51:48;;;;;;;4.63;2.78;;;;;;;9.99;61.36;101859.47;8271729;28;20068;-64
2022/04/17 06:55:49;;;;;;;7.20;3.63;;;;;;;10.09;60.82;101863.31;8268223;28;20317;-64
2022/04/17 06:59:50;;;;;;;3.92;2.85;;;;;;;10.29;60.08;101867.34;8258764;28;20657;-65
2022/04/17 07:03:50;;;;;;;7.03;3.95;;;;;;;10.34;59.66;101865.19;8273793;28;20057;-64
2022/04/17 07:08:00;;;;;;;7.80;4.60;;;;;;;10.52;59.34;101853.94;8273024;28;20568;-64
2022/04/17 07:12:00;;;;;;;6.45;2.70;;;;;;;10.62;58.81;101857.75;8264489;28;20284;-65
2022/04/17 07:16:01;;;;;;;4.97;3.17;;;;;;;10.86;59.14;101847.88;8277227;28;20125;-64
2022/04/17 07:20:05;;;;;;;4.30;2.70;;;;;;;10.96;58.05;101843.56;8271749;28;20829;-64
2022/04/17 07:24:06;;;;;;;4.90;2.20;;;;;;;11.04;57.78;101834.88;8280682;28;20454;-64
2022/04/17 07:28:12;;;;;;;3.10;1.93;;;;;;;11.07;56.44;101838.22;8287030;28;20380;-65
2022/04/17 07:32:12;;;;;;;2.72;1.80;;;;;;;11.20;56.66;101841.75;8279491;28;20328;-65
2022/04/17 07:36:13;;;;;;;4.53;2.15;;;;;;;11.18;56.34;101827.47;8260004;28;20034;-65
2022/04/17 07:40:15;;;;;;;4.63;1.80;;;;;;;11.43;56.59;101821.09;8265528;28;20469;-65
2022/04/17 07:44:16;;;;;;;4.10;2.08;;;;;;;11.61;55.79;101831.44;8268997;28;20292;-65
2022/04/17 07:48:16;;;;;;;3.00;2.03;;;;;;;11.75;55.07;101822.31;8278573;28;20062;-65
2022/04/17 07:52:16;;;;;;;3.13;1.60;;;;;;;11.72;54.21;101817.94;8263545;28;20523;-65
2022/04/17 07:56:17;;;;;;;2.47;1.80;;;;;;;11.93;54.50;101829.88;8286380;28;20104;-65
2022/04/17 08:00:20;;;;;;;4.60;2.13;;;;;;;11.97;53.95;101818.81;8268032;28;20042;-65
2022/04/17 08:04:20;;;;;;;5.20;1.70;;;;;;;12.07;54.31;101811.72;8258775;28;20038;-65
2022/04/17 08:08:21;;;;;;;2.43;1.40;;;;;;;12.43;54.30;101808.81;8253948;28;20042;-64
2022/04/17 08:12:21;;;;;;;2.58;1.67;;;;;;;12.70;52.58;101814.78;8261601;28;20358;-64
2022/04/17 08:16:22;;;;;;;3.70;1.67;;;;;;;12.76;53.69;101800.72;8256885;28;20550;-65
2022/04/17 08:20:22;;;;;;;1.98;1.65;;;;;;;12.97;52.97;101812.56;8259107;28;20046;-62
2022/04/17 08:24:23;;;;;;;4.35;1.85;;;;;;;13.16;53.50;101799.22;8291878;28;20041;-61
2022/04/17 08:28:23;;;;;;;7.70;1.77;;;;;;;13.62;53.45;101805.28;8277729;28;20050;-61
2022/04/17 08:32:23;;;;;;;3.05;1.60;;;;;;;13.39;51.85;101806.34;8273007;28;20328;-64
2022/04/17 08:36:24;;;;;;;5.53;1.77;;;;;;;13.36;52.33;101802.03;8260500;28;20054;-61
2022/04/17 08:40:26;;;;;;;3.75;1.60;;;;;;;13.68;51.14;101807.50;8273028;28;20511;-65
2022/04/17 08:44:27;;;;;;;3.33;2.00;;;;;;;13.74;50.68;101806.97;8271415;28;20049;-65
2022/04/17 08:48:28;;;;;;;2.67;1.70;;;;;;;13.58;50.09;101790.25;8265860;28;20050;-65
2022/04/17 08:52:30;;;;;;;1.85;1.27;;;;;;;13.78;49.94;101793.00;8265705;28;20045;-65
2022/04/17 08:56:31;;;;;;;3.50;1.70;;;;;;;13.91;50.30;101776.50;8258182;28;20262;-65
2022/04/17 09:00:32;;;;;;;5.78;1.77;;;;;;;13.82;49.00;101771.88;8268865;28;20040;-65
2022/04/17 09:04:32;;;;;;;1.70;1.30;;;;;;;14.32;48.01;101775.66;8258671;28;20574;-65
2022/04/17 09:08:33;;;;;;;2.30;1.48;;;;;;;14.11;48.29;101762.03;8255510;28;20655;-65
2022/04/17 09:12:33;;;;;;;1.65;1.10;;;;;;;14.05;48.22;101768.00;8273972;28;20042;-65
2022/04/17 09:16:36;;;;;;;1.63;1.27;;;;;;;14.04;48.06;101782.63;8252271;28;20569;-66
2022/04/17 09:20:36;;;;;;;4.20;1.25;;;;;;;14.37;47.76;101782.44;8252859;28;20044;-65
2022/04/17 09:24:39;;;;;;;3.58;1.30;;;;;;;14.57;47.78;101776.09;8253962;28;20593;-65
2022/04/17 09:28:44;;;;;;;2.53;1.30;;;;;;;14.82;47.44;101764.75;8259294;28;20050;-65
2022/04/17 09:32:44;;;;;;;5.38;1.45;;;;;;;15.03;47.92;101751.94;8263769;28;20064;-65
2022/04/17 09:36:44;;;;;;;2.33;1.23;;;;;;;15.14;46.77;101760.00;8261954;28;20038;-65
2022/04/17 09:40:48;;;;;;;3.88;1.45;;;;;;;15.86;46.94;101762.41;8269309;28;20046;-65
2022/04/17 09:44:51;;;;;;;1.88;1.13;;;;;;;17.88;45.72;101743.09;8267113;28;20041;-65
2022/04/17 09:48:57;;;;;;;1.70;1.00;;;;;;;18.44;41.22;101741.69;8264721;28;20077;-66
2022/04/17 09:52:59;;;;;;;3.90;1.17;;;;;;;18.43;41.83;101718.06;8257492;28;20057;-65
2022/04/17 09:57:00;;;;;;;1.73;0.90;;;;;;;18.78;40.80;101714.28;8260377;28;20049;-65
2022/04/17 10:01:00;;;;;;;2.92;1.10;;;;;;;19.47;41.51;101701.19;8269945;28;20582;-65
2022/04/17 10:05:02;;;;;;;4.97;1.42;;;;;;;20.60;38.48;101677.22;8260949;28;20044;-66
2022/04/17 10:09:04;;;;;;;3.17;1.05;;;;;;;19.90;39.68;101702.72;8264902;28;20038;-66
2022/04/17 10:13:06;;;;;;;3.45;1.77;;;;;;;19.51;37.86;101690.72;8267580;28;20037;-66
2022/04/17 10:17:08;;;;;;;2.70;1.00;;;;;;;19.21;39.34;101681.19;8270353;28;20621;-65
2022/04/17 10:21:09;;;;;;;2.13;1.17;;;;;;;20.02;40.53;101687.63;8258847;28;20068;-63
2022/04/17 10:25:10;;;;;;;2.65;1.00;;;;;;;20.84;39.94;101671.63;8272121;28;20165;-64
2022/04/17 10:29:22;;;;;;;1.83;0.90;;;;;;;20.44;39.29;101664.41;8259464;28;20469;-65
2022/04/17 10:34:05;;;;;;;1.42;1.00;;;;;;;20.59;37.98;101670.03;8258342;28;20046;-65
2022/04/17 10:42:36;;;;;;;2.25;1.27;;;;;;;20.56;38.23;101648.41;8363937;27;20408;-63
2022/04/17 10:46:49;;;;;;;1.42;0.80;;;;;;;20.89;38.51;101655.47;8329027;28;20536;-63
2022/04/17 10:50:51;;;;;;;1.30;0.95;;;;;;;21.06;38.60;101635.13;8332161;28;20045;-63
2022/04/17 10:54:51;;;;;;;1.85;0.93;;;;;;;21.46;37.59;101648.59;8314845;28;20053;-64
2022/04/17 10:58:54;;;;;;;1.83;1.07;;;;;;;21.58;36.94;101624.22;8319668;28;20091;-64
2022/04/17 11:02:58;;;;;;;1.77;1.00;;;;;;;21.65;37.56;101636.25;8344350;28;20472;-64
2022/04/17 11:11:19;;;;;;;1.90;1.13;;;;;;;22.22;38.01;101619.00;8352286;27;20411;-64
2022/04/17 11:15:22;;;;;;;1.92;1.20;;;;;;;22.16;36.35;101614.22;8331410;28;20040;-64
2022/04/17 11:19:32;;;;;;;2.63;1.30;;;;;;;21.85;37.09;101616.28;8325666;28;20100;-64
2022/04/17 11:28:02;;;;;;;2.45;1.13;;;;;;;21.73;36.52;101612.22;8382608;27;20392;-63
2022/04/17 11:32:25;;;;;;;2.88;1.15;;;;;;;21.66;36.86;101605.78;8340100;28;20033;-64
2022/04/17 11:36:26;;;;;;;2.53;1.23;;;;;;;21.75;36.29;101582.66;8335586;28;20558;-64
2022/04/17 11:40:29;;;;;;;1.60;1.10;;;;;;;22.23;35.83;101573.84;8322656;28;20377;-65
2022/04/17 11:44:29;;;;;;;3.38;1.30;;;;;;;22.34;36.99;101576.13;8346802;28;20041;-64
2022/04/17 11:48:30;;;;;;;2.97;1.20;;;;;;;21.85;36.69;101561.22;8337475;28;20163;-64
2022/04/17 11:52:30;;;;;;;3.20;1.70;;;;;;;22.07;36.76;101553.91;8341497;28;20045;-64
2022/04/17 11:56:51;;;;;;;2.25;1.30;;;;;;;21.83;37.28;101548.69;8329288;28;20110;-65
2022/04/17 12:00:56;;;;;;;1.67;1.10;;;;;;;20.34;37.56;101544.78;8329977;28;20041;-65
2022/04/17 12:05:06;;;;;;;3.33;1.38;;;;;;;18.88;39.88;101532.25;8330341;28;20045;-65
2022/04/17 12:09:07;;;;;;;1.88;1.23;;;;;;;18.68;40.76;101530.84;8312320;28;20037;-65
2022/04/17 12:13:12;;;;;;;4.70;1.60;;;;;;;18.64;41.63;101518.53;8323208;28;20135;-65
2022/04/17 12:17:14;;;;;;;2.42;1.20;;;;;;;19.27;40.89;101510.53;8323431;28;20182;-64
2022/04/17 12:21:15;;;;;;;1.98;1.30;;;;;;;18.82;40.81;101505.50;8330839;28;20041;-65
2022/04/17 12:25:20;;;;;;;0.90;0.80;;;;;;;18.82;40.46;101505.50;8325200;28;20049;-65
2022/04/17 12:29:20;;;;;;;5.57;1.15;;;;;;;18.47;40.30;101500.34;8300839;28;20294;-65
2022/04/17 12:33:23;;;;;;;1.75;0.90;;;;;;;18.49;40.27;101486.47;8341657;28;20041;-65
2022/04/17 12:37:28;;;;;;;1.48;0.98;;;;;;;18.41;42.04;101484.56;8318057;28;20482;-65
2022/04/17 12:41:36;;;;;;;1.58;1.02;;;;;;;18.32;42.02;101480.06;8314362;28;20037;-65
2022/04/17 12:45:36;;;;;;;3.13;1.20;;;;;;;18.47;40.92;101478.41;8309858;28;20496;-65
2022/04/17 12:49:38;;;;;;;3.80;1.23;;;;;;;18.47;40.58;101455.66;8305555;28;20124;-65
2022/04/17 12:53:40;;;;;;;2.95;1.00;;;;;;;18.97;41.31;101449.00;8316268;28;20045;-65
2022/04/17 12:57:41;;;;;;;1.67;1.02;;;;;;;18.65;41.37;101459.97;8320384;28;20068;-65
2022/04/17 13:01:46;;;;;;;2.15;1.00;;;;;;;18.15;41.62;101453.69;8319023;28;20789;-65
2022/04/17 13:06:03;;;;;;;1.60;0.90;;;;;;;18.10;41.00;101439.63;8299198;28;20045;-65
2022/04/17 13:10:07;;;;;;;2.67;0.98;;;;;;;18.34;42.56;101445.16;8312583;28;20147;-65
2022/04/17 13:14:07;;;;;;;2.55;0.80;;;;;;;18.55;42.41;101431.88;8309838;28;20481;-65
2022/04/17 13:18:08;;;;;;;3.80;1.08;;;;;;;18.70;42.09;101434.78;8313612;28;20512;-64
2022/04/17 13:22:08;;;;;;;3.53;1.20;;;;;;;18.59;41.56;101415.94;8308069;28;21265;-64
2022/04/17 13:26:10;;;;;;;4.53;0.98;;;;;;;18.45;41.21;101408.41;8314089;28;20052;-64
2022/04/17 13:30:12;;;;;;;3.72;1.08;;;;;;;18.76;41.70;101410.28;8322045;28;20057;-64
2022/04/17 13:34:12;;;;;;;1.63;0.88;;;;;;;18.48;40.70;101399.88;8326488;28;20441;-65
2022/04/17 13:38:13;;;;;;;2.08;0.90;;;;;;;18.56;39.71;101395.25;8317548;28;20130;-65
2022/04/17 13:42:13;;;;;;;4.95;0.95;;;;;;;18.66;40.98;101379.47;8312906;28;20488;-64
2022/04/17 13:46:14;;;;;;;1.00;0.80;;;;;;;18.33;40.10;101369.50;8312445;28;20041;-64
2022/04/17 13:50:14;;;;;;;2.83;0.80;;;;;;;18.81;39.74;101369.53;8309289;28;20104;-65
2022/04/17 13:54:15;;;;;;;1.95;0.82;;;;;;;18.66;39.10;101354.81;8313347;28;20376;-64
2022/04/17 13:58:15;;;;;;;1.52;0.90;;;;;;;18.35;38.87;101351.03;8291938;28;20070;-64
2022/04/17 14:02:16;;;;;;;2.65;0.73;;;;;;;18.46;39.62;101345.25;8313852;28;20067;-64
2022/04/17 14:06:16;;;;;;;2.28;0.50;;;;;;;18.34;40.23;101334.78;8315626;28;20041;-64
2022/04/17 14:10:17;;;;;;;2.88;0.90;;;;;;;18.45;38.67;101337.22;8311477;28;20053;-65
2022/04/17 14:14:17;;;;;;;2.55;0.90;;;;;;;18.68;37.79;101322.66;8307762;28;20049;-64
2022/04/17 14:18:18;;;;;;;1.45;0.63;;;;;;;18.73;37.92;101322.97;8307794;28;20037;-64
2022/04/17 14:22:23;;;;;;;7.40;1.40;;;;;;;18.79;38.16;101315.94;8307424;28;20045;-64
2022/04/17 14:26:24;;;;;;;1.20;0.85;;;;;;;18.80;39.08;101309.44;8300848;28;20045;-64
2022/04/17 14:30:24;;;;;;;1.83;0.70;;;;;;;18.58;38.47;101297.31;8305383;28;20756;-64
2022/04/17 14:34:25;;;;;;;1.83;0.77;;;;;;;18.47;38.40;101305.03;8287737;28;20041;-65
2022/04/17 14:38:25;;;;;;;3.17;0.90;;;;;;;18.79;37.22;101300.34;8308833;28;20302;-65
2022/04/17 14:42:26;;;;;;;1.45;0.70;;;;;;;18.55;37.01;101289.47;8306698;28;20403;-65
2022/04/17 14:46:26;;;;;;;2.23;0.83;;;;;;;18.68;37.66;101295.25;8310712;28;20365;-65
2022/04/17 14:50:27;;;;;;;2.53;0.55;;;;;;;18.63;38.16;101280.38;8308607;28;20763;-65
2022/04/17 14:54:28;;;;;;;2.20;0.63;;;;;;;18.56;37.78;101274.72;8309673;28;20847;-65
2022/04/17 14:58:29;;;;;;;1.38;0.60;;;;;;;18.76;36.75;101281.50;8315948;28;20330;-65
2022/04/17 15:02:30;;;;;;;1.20;0.70;;;;;;;18.66;37.17;101269.91;8316400;28;20454;-65
2022/04/17 15:06:30;;;;;;;2.90;0.82;;;;;;;18.79;37.79;101258.41;8321189;28;20430;-65
2022/04/17 15:10:31;;;;;;;1.20;0.60;;;;;;;18.56;38.16;101252.81;8283006;28;20444;-65
2022/04/17 15:14:31;;;;;;;2.95;0.52;;;;;;;18.71;37.36;101248.31;8308649;28;20076;-65
2022/04/17 15:18:31;;;;;;;3.65;0.98;;;;;;;18.64;39.22;101236.38;8316666;28;20511;-63
2022/04/17 15:22:32;;;;;;;2.78;0.55;;;;;;;18.61;36.64;101239.47;8319325;28;20410;-64
2022/04/17 15:26:32;;;;;;;2.80;0.65;;;;;;;18.62;35.84;101227.47;8313777;28;20041;-65
2022/04/17 15:30:33;;;;;;;1.15;0.60;;;;;;;18.93;36.74;101225.66;8310610;28;20045;-65
2022/04/17 15:34:33;;;;;;;3.63;0.70;;;;;;;18.68;35.66;101217.69;8297319;28;20088;-65
2022/04/17 15:38:34;;;;;;;2.38;0.60;;;;;;;18.50;36.39;101220.63;8318608;28;20139;-65
2022/04/17 15:42:38;;;;;;;5.20;0.60;;;;;;;18.55;38.04;101211.91;8293687;28;20045;-64
2022/04/17 15:47:54;;;;;;;1.13;0.73;;;;;;;18.65;36.34;101210.69;8316610;28;20076;-64
2022/04/17 15:51:00;;;;;;;3.03;1.50;;;;;;;18.60;36.91;101204.03;8320325;28;20045;-65
2022/04/17 15:55:00;;;;;;;1.13;0.70;;;;;;;18.67;36.09;101211.34;8310835;28;20095;-65
2022/04/17 15:59:02;;;;;;;2.85;0.77;;;;;;;18.52;36.03;101191.19;8308179;28;20052;-65
2022/04/17 16:03:03;;;;;;;1.25;0.50;;;;;;;18.46;36.15;101200.13;8322193;28;20080;-65
2022/04/17 16:07:03;;;;;;;1.40;0.63;;;;;;;18.33;35.94;101186.06;8306777;28;20372;-65
2022/04/17 16:11:04;;;;;;;1.08;0.50;;;;;;;18.43;35.42;101186.78;8287993;28;20048;-65
2022/04/17 16:15:05;;;;;;;0.90;0.30;;;;;;;18.40;35.53;101181.66;8311613;28;20037;-64
2022/04/17 16:19:06;;;;;;;1.17;0.70;;;;;;;18.37;34.98;101182.00;8299367;28;20064;-64
2022/04/17 16:23:06;;;;;;;3.78;1.33;;;;;;;18.31;34.50;101187.28;8309913;28;20056;-64
2022/04/17 16:27:07;;;;;;;1.15;0.57;;;;;;;18.23;34.83;101177.19;8299162;28;20072;-65
2022/04/17 16:31:08;;;;;;;3.00;0.77;;;;;;;18.22;34.93;101172.75;8314703;28;20059;-65
2022/04/17 16:35:08;;;;;;;1.98;1.30;;;;;;;18.30;34.73;101169.97;8316536;28;20135;-65
2022/04/17 16:39:09;;;;;;;3.58;1.85;;;;;;;18.35;34.11;101172.19;8311271;28;20045;-65
2022/04/17 16:43:09;;;;;;;1.55;0.90;;;;;;;18.35;34.84;101167.59;8311584;28;20189;-65
2022/04/17 16:47:10;;;;;;;1.43;0.80;;;;;;;18.27;33.80;101164.00;8294783;28;20216;-65
2022/04/17 16:51:10;;;;;;;1.23;0.70;;;;;;;18.20;33.64;101158.38;8303542;28;20675;-65
2022/04/17 16:55:12;;;;;;;2.42;0.80;;;;;;;18.12;34.44;101155.66;8301961;28;20065;-65
2022/04/17 16:59:12;;;;;;;2.28;0.90;;;;;;;18.02;35.47;101154.97;8311131;28;20065;-65
2022/04/17 17:03:14;;;;;;;0.98;0.60;;;;;;;17.98;34.69;101155.50;8307969;28;20403;-65
2022/04/17 17:07:15;;;;;;;2.35;0.93;;;;;;;17.91;34.93;101149.88;8314423;28;20493;-65
2022/04/17 17:11:16;;;;;;;3.17;0.73;;;;;;;17.79;36.45;101148.50;8308218;28;20085;-65
2022/04/17 17:15:16;;;;;;;2.92;1.05;;;;;;;17.78;36.60;101146.78;8307100;28;20884;-64
2022/04/17 17:19:17;;;;;;;2.28;0.70;;;;;;;17.61;36.88;101136.88;8312608;28;20824;-64
2022/04/17 17:23:17;;;;;;;5.43;4.93;;;;;;;17.56;37.50;101140.13;8308983;28;20056;-64
2022/04/17 17:27:20;;;;;;;5.07;1.80;;;;;;;17.45;37.51;101140.44;8309035;28;20084;-64
2022/04/17 17:31:20;;;;;;;1.17;0.80;;;;;;;17.44;36.94;101138.75;8309183;28;20472;-65
2022/04/17 17:35:21;;;;;;;2.53;0.80;;;;;;;17.37;37.32;101137.69;8306262;28;20075;-65
2022/04/17 17:39:21;;;;;;;2.90;1.40;;;;;;;17.29;37.72;101139.53;8307199;28;20524;-65
2022/04/17 17:43:22;;;;;;;2.28;1.60;;;;;;;17.16;37.58;101133.72;8306431;28;20041;-65
2022/04/17 17:47:22;;;;;;;3.75;1.77;;;;;;;17.04;38.39;101133.19;8310960;28;20125;-65
2022/04/17 17:51:22;;;;;;;3.23;1.57;;;;;;;16.96;38.72;101140.53;8309287;28;20044;-64
2022/04/17 17:55:23;;;;;;;2.08;1.15;;;;;;;16.85;39.45;101138.09;8306618;28;20841;-64
2022/04/17 17:59:24;;;;;;;2.72;1.27;;;;;;;16.63;40.44;101138.69;8309214;28;20486;-64
2022/04/17 18:03:25;;;;;;;5.63;2.83;;;;;;;16.69;40.63;101136.16;8308741;28;20594;-64
2022/04/17 18:16:07;;;;;;;2.25;1.58;;;;;;;16.38;41.11;101136.84;8308001;28;20095;-64
2022/04/17 18:20:10;;;;;;;5.95;5.32;;;;;;;16.32;41.30;101132.03;8290527;28;20042;-64
2022/04/17 18:24:10;;;;;;;4.35;1.52;;;;;;;16.10;41.41;101129.84;8307288;28;20303;-64
2022/04/17 18:28:11;;;;;;;7.82;5.22;;;;;;;15.77;41.96;101127.91;8306647;28;20423;-64
2022/04/17 18:32:11;;;;;;;157.25;70.40;;;;;;;15.77;41.97;101136.97;8342120;28;20587;-64
2022/04/17 18:36:12;;;;;;;6.13;2.78;;;;;;;15.64;42.22;101140.09;8320739;28;20064;-64
2022/04/17 18:40:12;;;;;;;2.58;1.85;;;;;;;15.48;42.36;101136.34;8324832;28;20116;-64
2022/04/17 18:44:13;;;;;;;5.40;1.90;;;;;;;15.40;42.45;101133.56;8342689;28;20041;-64
2022/04/17 18:48:13;;;;;;;73.60;43.92;;;;;;;15.21;43.08;101145.44;8333526;28;20057;-64
2022/04/17 18:52:13;;;;;;;26.10;13.02;;;;;;;15.06;43.56;101136.09;8325836;28;20060;-64
2022/04/17 18:56:14;;;;;;;46.75;25.30;;;;;;;14.86;44.16;101139.97;8348953;28;20056;-64
2022/04/17 19:00:14;;;;;;;13.50;8.88;;;;;;;14.51;46.23;101145.31;8310262;28;20101;-65
2022/04/17 19:04:15;;;;;;;4.05;2.17;;;;;;;14.17;46.70;101141.41;8346421;28;20509;-64
2022/04/17 19:08:15;;;;;;;12.85;8.52;;;;;;;14.06;47.71;101138.84;8341853;28;20071;-63
2022/04/17 19:16:38;;;;;;;6.93;4.28;;;;;;;13.83;47.39;101137.50;8326586;28;20068;-64
2022/04/17 19:20:39;;;;;;;5.70;2.20;;;;;;;13.67;47.52;101142.69;8307536;28;20072;-64